KMSN

Dane County Regional-Truax Field Airport

Madison, Wisconsin, USA
METAR KMSN 161153Z 00000KT 6SM BR FEW170 SCT210 M04/M06 A3008 RMK AO2 SLP198 I1000 I6000 T10441056 11022 21072 56009 $
Observed Flight Rules
Dec-16 @ 11:53 UTC (53 minutes ago) Visual Flight Rules
Visibility Clouds Conditions
6 miles
  • Few at 17,000' AGL
  • Scattered at 21,000' AGL
  • Mist
Temperatures Readings
Current -4°C / 25°F
Dewpoint -6°C / 21°F
Humidity 86%
Altimeter 30.08" Hg
Pressure 1019.8 hPa
Elevation 261
METAR KMSN 161153Z 00000KT 6SM BR FEW170 SCT210 M04/M06 A3008 RMK AO2 SLP198 I1000 I6000 T10441056 11022 21072 56009 $
Observed Flight Rules
Dec-16 @ 11:53 UTC
(53 minutes ago)
VFR
Clouds
  • Few at 17,000' AGL
  • Scattered at 21,000' AGL
Conditions
  • Mist
Temperature Dewpoint
-4°C / 25°F -6°C / 21°F
Humidity Altimeter Pressure
86% 30.08" Hg 1019.8 hPa